Time;durP1;ratioP1;P1;durP2;ratioP2;P2;SDS_P1;SDS_P2;PMS_P1;PMS_P2;Temp;Humidity;BMP_temperature;BMP_pressure;BME280_temperature;BME280_humidity;BME280_pressure;Samples;Min_cycle;Max_cycle;Signal;HPM_P1;HPM_P2
2022/10/13 00:00:50;;;;;;;16.80;5.20;;;;;;;;;;5033055;28;20064;-63
2022/10/13 00:03:17;;;;;;;12.07;3.47;;;;;;;;;;5033175;28;20025;-63
2022/10/13 00:05:44;;;;;;;15.60;4.05;;;;;;;;;;5033098;28;20739;-63
2022/10/13 00:08:11;;;;;;;15.60;3.33;;;;;;;;;;5033014;28;20021;-63
2022/10/13 00:10:41;;;;;;;12.70;3.53;;;;;;;;;;5032221;28;20107;-63
2022/10/13 00:13:11;;;;;;;10.32;3.47;;;;;;;;;;5033809;28;20132;-63
2022/10/13 00:15:38;;;;;;;11.23;2.88;;;;;;;;;;5033932;28;20457;-63
2022/10/13 00:18:04;;;;;;;12.63;3.28;;;;;;;;;;5034045;28;20358;-63
2022/10/13 00:20:30;;;;;;;14.80;3.72;;;;;;;;;;5043565;28;20025;-63
2022/10/13 00:22:57;;;;;;;8.77;3.65;;;;;;;;;;5033757;28;20082;-63
2022/10/13 00:25:23;;;;;;;16.27;3.60;;;;;;;;;;5033094;28;20025;-63
2022/10/13 00:27:49;;;;;;;12.68;3.17;;;;;;;;;;5033375;28;20072;-63
2022/10/13 00:30:15;;;;;;;13.55;4.22;;;;;;;;;;5032170;28;20017;-63
2022/10/13 00:32:41;;;;;;;11.68;3.40;;;;;;;;;;5032807;28;20021;-63
2022/10/13 00:35:07;;;;;;;18.30;4.32;;;;;;;;;;5032240;28;20038;-63
2022/10/13 00:37:34;;;;;;;9.52;3.30;;;;;;;;;;5032174;28;20029;-63
2022/10/13 00:40:00;;;;;;;16.55;3.53;;;;;;;;;;5032193;28;20040;-63
2022/10/13 00:42:26;;;;;;;9.70;3.28;;;;;;;;;;5033079;28;20521;-63
2022/10/13 00:44:52;;;;;;;11.13;3.60;;;;;;;;;;5032592;28;20021;-63
2022/10/13 00:47:19;;;;;;;14.38;3.72;;;;;;;;;;5032465;28;20030;-63
2022/10/13 00:49:45;;;;;;;10.80;3.45;;;;;;;;;;5032282;28;20466;-63
2022/10/13 00:52:12;;;;;;;8.00;2.85;;;;;;;;;;5031461;28;20053;-63
2022/10/13 00:54:38;;;;;;;12.65;3.63;;;;;;;;;;5032629;28;20026;-63
2022/10/13 00:57:06;;;;;;;14.48;3.60;;;;;;;;;;5035235;28;20049;-63
2022/10/13 00:59:33;;;;;;;13.38;3.42;;;;;;;;;;5032294;28;20029;-63
2022/10/13 01:02:00;;;;;;;11.80;3.25;;;;;;;;;;5032505;28;20108;-63
2022/10/13 01:04:29;;;;;;;12.80;3.40;;;;;;;;;;5031713;28;20078;-63
2022/10/13 01:06:56;;;;;;;20.02;3.28;;;;;;;;;;5031956;28;20025;-63
2022/10/13 01:09:22;;;;;;;11.70;3.22;;;;;;;;;;5031408;28;20485;-63
2022/10/13 01:12:14;;;;;;;8.80;2.90;;;;;;;;;;5031617;28;20032;-63
2022/10/13 01:14:44;;;;;;;9.90;2.67;;;;;;;;;;5024709;28;20087;-63
2022/10/13 01:17:15;;;;;;;14.65;3.33;;;;;;;;;;5030612;28;20141;-63
2022/10/13 01:19:59;;;;;;;14.07;3.35;;;;;;;;;;5029266;28;20044;-63
2022/10/13 01:22:25;;;;;;;10.63;2.45;;;;;;;;;;5031182;28;20099;-63
2022/10/13 01:25:14;;;;;;;8.43;2.72;;;;;;;;;;5025184;28;20036;-63
2022/10/13 01:28:10;;;;;;;11.65;2.35;;;;;;;;;;4959323;28;20039;-63
2022/10/13 01:30:43;;;;;;;10.13;2.80;;;;;;;;;;4958810;28;20163;-63
2022/10/13 01:33:13;;;;;;;7.47;2.90;;;;;;;;;;4952615;28;20039;-63
2022/10/13 01:35:40;;;;;;;12.13;2.53;;;;;;;;;;4957515;28;20034;-63
2022/10/13 01:38:09;;;;;;;7.57;2.90;;;;;;;;;;4951472;28;20031;-63
2022/10/13 01:40:40;;;;;;;9.43;2.58;;;;;;;;;;4951487;28;20035;-63
2022/10/13 01:43:10;;;;;;;8.50;2.60;;;;;;;;;;4957299;28;20047;-63
2022/10/13 01:45:39;;;;;;;14.02;2.42;;;;;;;;;;4951877;28;20070;-63
2022/10/13 01:48:07;;;;;;;10.43;2.80;;;;;;;;;;4959229;28;20035;-63
2022/10/13 01:50:38;;;;;;;8.15;2.47;;;;;;;;;;4961917;28;20039;-63
2022/10/13 01:53:05;;;;;;;10.13;2.85;;;;;;;;;;4974015;28;20057;-63
2022/10/13 01:55:31;;;;;;;8.60;3.00;;;;;;;;;;4973993;28;20058;-63
2022/10/13 01:57:57;;;;;;;10.93;2.83;;;;;;;;;;4980682;28;20406;-63
2022/10/13 02:00:24;;;;;;;6.82;2.45;;;;;;;;;;4987334;28;20042;-63
2022/10/13 02:03:06;;;;;;;6.47;2.55;;;;;;;;;;4985022;28;20030;-63
2022/10/13 02:05:38;;;;;;;9.30;2.67;;;;;;;;;;5027027;28;20034;-63
2022/10/13 02:08:04;;;;;;;;;;;;;;;;;;5035295;28;20528;-63
2022/10/13 02:10:34;;;;;;;8.05;3.00;;;;;;;;;;5034938;28;20319;-63
2022/10/13 02:13:04;;;;;;;13.93;3.05;;;;;;;;;;5033192;28;20061;-63
2022/10/13 02:15:33;;;;;;;10.45;3.53;;;;;;;;;;5034959;28;20048;-63
2022/10/13 02:18:01;;;;;;;8.18;3.25;;;;;;;;;;5036313;28;20049;-63
2022/10/13 02:20:28;;;;;;;7.00;2.85;;;;;;;;;;5034767;28;20052;-63
2022/10/13 02:22:56;;;;;;;9.30;3.65;;;;;;;;;;5038518;28;20033;-63
2022/10/13 02:25:23;;;;;;;8.57;3.00;;;;;;;;;;5044601;28;20392;-63
2022/10/13 02:27:51;;;;;;;7.82;2.70;;;;;;;;;;5046739;28;20020;-63
2022/10/13 02:30:24;;;;;;;16.70;3.45;;;;;;;;;;5036028;28;20026;-63
2022/10/13 02:32:50;;;;;;;9.32;2.90;;;;;;;;;;5038956;28;20030;-63
2022/10/13 02:35:16;;;;;;;15.68;2.80;;;;;;;;;;5045054;28;20060;-63
2022/10/13 02:37:42;;;;;;;9.85;3.00;;;;;;;;;;5045377;28;20504;-63
2022/10/13 02:40:09;;;;;;;12.20;3.20;;;;;;;;;;5029841;28;20042;-63
2022/10/13 02:42:35;;;;;;;8.32;3.17;;;;;;;;;;5033967;28;20086;-63
2022/10/13 02:45:01;;;;;;;8.43;2.88;;;;;;;;;;5037332;28;20032;-63
2022/10/13 02:47:27;;;;;;;9.93;3.55;;;;;;;;;;5041666;28;20029;-63
2022/10/13 02:49:53;;;;;;;5.05;2.92;;;;;;;;;;5035893;28;20009;-63
2022/10/13 02:52:20;;;;;;;6.47;2.78;;;;;;;;;;5052431;28;20040;-63
2022/10/13 02:54:46;;;;;;;10.10;2.97;;;;;;;;;;5040492;28;20468;-63
2022/10/13 02:57:12;;;;;;;12.30;3.03;;;;;;;;;;5040377;28;20039;-63
2022/10/13 02:59:42;;;;;;;6.10;2.55;;;;;;;;;;5033574;28;20120;-63
2022/10/13 03:02:08;;;;;;;12.68;2.63;;;;;;;;;;5044453;28;20029;-63
2022/10/13 03:04:35;;;;;;;7.10;2.40;;;;;;;;;;5034364;28;20550;-63
2022/10/13 03:07:02;;;;;;;12.32;2.40;;;;;;;;;;5042086;28;20033;-63
2022/10/13 03:09:28;;;;;;;3.30;2.08;;;;;;;;;;5033715;28;20581;-63
2022/10/13 03:11:54;;;;;;;7.45;2.17;;;;;;;;;;5046413;28;20033;-63
2022/10/13 03:14:20;;;;;;;8.93;2.63;;;;;;;;;;5029798;28;20037;-63
2022/10/13 03:16:46;;;;;;;4.78;2.15;;;;;;;;;;5045359;28;20090;-63
2022/10/13 03:19:13;;;;;;;8.48;3.85;;;;;;;;;;5040187;28;20017;-63
2022/10/13 03:21:39;;;;;;;4.63;1.88;;;;;;;;;;5033392;28;20033;-63
2022/10/13 03:24:05;;;;;;;5.10;2.10;;;;;;;;;;5033688;28;20036;-63
2022/10/13 03:26:31;;;;;;;4.95;1.70;;;;;;;;;;5033261;28;20030;-63
2022/10/13 03:28:58;;;;;;;6.75;2.17;;;;;;;;;;5033301;28;20030;-63
2022/10/13 03:31:24;;;;;;;15.73;2.10;;;;;;;;;;5033068;28;20025;-63
2022/10/13 03:33:50;;;;;;;8.23;1.83;;;;;;;;;;5033406;28;20465;-63
2022/10/13 03:36:16;;;;;;;4.15;1.98;;;;;;;;;;5037347;28;20030;-63
2022/10/13 03:38:45;;;;;;;6.70;2.72;;;;;;;;;;5033109;28;20021;-63
2022/10/13 03:41:15;;;;;;;8.20;2.53;;;;;;;;;;5033771;28;20466;-63
2022/10/13 03:43:42;;;;;;;5.35;2.03;;;;;;;;;;5032792;28;20394;-63
2022/10/13 03:46:10;;;;;;;4.70;1.88;;;;;;;;;;5033628;28;20053;-63
2022/10/13 03:48:36;;;;;;;3.50;1.95;;;;;;;;;;5033189;28;20394;-63
2022/10/13 03:51:06;;;;;;;2.65;1.77;;;;;;;;;;5033423;28;20033;-63
2022/10/13 03:53:33;;;;;;;8.23;1.75;;;;;;;;;;5032576;28;20039;-63
2022/10/13 03:55:59;;;;;;;5.60;1.90;;;;;;;;;;5033839;28;20363;-63
2022/10/13 03:58:27;;;;;;;3.70;1.73;;;;;;;;;;5031930;28;20033;-63
2022/10/13 04:00:54;;;;;;;10.02;2.00;;;;;;;;;;5030736;28;20087;-63
2022/10/13 04:03:20;;;;;;;5.10;1.60;;;;;;;;;;5025406;28;20026;-63
2022/10/13 04:05:46;;;;;;;4.15;1.80;;;;;;;;;;5030996;28;20069;-63
2022/10/13 04:08:13;;;;;;;3.08;1.80;;;;;;;;;;5031252;28;20037;-63
2022/10/13 04:10:39;;;;;;;5.70;1.88;;;;;;;;;;5033756;28;20041;-63
2022/10/13 04:13:05;;;;;;;4.43;1.75;;;;;;;;;;5030251;28;20034;-63
2022/10/13 04:15:35;;;;;;;8.93;2.42;;;;;;;;;;5029890;28;20458;-63
2022/10/13 04:18:01;;;;;;;7.25;2.00;;;;;;;;;;5033389;28;20028;-63
2022/10/13 04:20:29;;;;;;;8.57;1.88;;;;;;;;;;5032543;28;20040;-63
2022/10/13 04:22:55;;;;;;;7.65;1.77;;;;;;;;;;5033297;28;20026;-63
2022/10/13 04:25:21;;;;;;;6.68;1.90;;;;;;;;;;5033218;28;20104;-63
2022/10/13 04:27:47;;;;;;;4.15;2.00;;;;;;;;;;5031235;28;20033;-63
2022/10/13 04:30:14;;;;;;;6.15;2.00;;;;;;;;;;5034471;28;20051;-63
2022/10/13 04:32:40;;;;;;;4.35;1.48;;;;;;;;;;5032102;28;20078;-63
2022/10/13 04:35:07;;;;;;;6.32;1.92;;;;;;;;;;5039770;28;20021;-63
2022/10/13 04:37:33;;;;;;;6.95;1.95;;;;;;;;;;5031972;28;20029;-63
2022/10/13 04:39:59;;;;;;;8.85;2.10;;;;;;;;;;5034565;28;20060;-63
2022/10/13 04:42:25;;;;;;;5.82;1.90;;;;;;;;;;5035518;28;20511;-63
2022/10/13 04:44:51;;;;;;;4.78;2.08;;;;;;;;;;5031416;28;20021;-63
2022/10/13 04:47:20;;;;;;;11.15;2.47;;;;;;;;;;5032772;28;20017;-63
2022/10/13 04:49:46;;;;;;;3.42;1.73;;;;;;;;;;5032077;28;20100;-63
2022/10/13 04:52:12;;;;;;;8.73;1.95;;;;;;;;;;5028895;28;20116;-63
2022/10/13 04:54:38;;;;;;;7.60;1.95;;;;;;;;;;5030676;28;20025;-63
2022/10/13 04:57:04;;;;;;;7.43;2.17;;;;;;;;;;5022310;28;20086;-63
2022/10/13 04:59:30;;;;;;;5.47;2.10;;;;;;;;;;5036946;28;20029;-63
2022/10/13 05:01:56;;;;;;;10.55;2.17;;;;;;;;;;5032118;28;20045;-63
2022/10/13 05:04:23;;;;;;;7.03;2.00;;;;;;;;;;5032326;28;20022;-63
2022/10/13 05:06:49;;;;;;;13.35;2.30;;;;;;;;;;5023962;28;20076;-63
2022/10/13 05:09:15;;;;;;;5.20;2.05;;;;;;;;;;5031213;28;20107;-63
2022/10/13 05:11:41;;;;;;;9.05;1.70;;;;;;;;;;5028068;28;20028;-63
2022/10/13 05:14:07;;;;;;;6.97;1.50;;;;;;;;;;5028558;28;20413;-63
2022/10/13 05:16:33;;;;;;;6.47;1.63;;;;;;;;;;5026533;28;20033;-63
2022/10/13 05:18:59;;;;;;;10.18;2.10;;;;;;;;;;5032186;28;20511;-63
2022/10/13 05:21:27;;;;;;;8.80;1.85;;;;;;;;;;5032542;28;20067;-63
2022/10/13 05:23:54;;;;;;;6.63;1.77;;;;;;;;;;5031866;28;20384;-63
2022/10/13 05:26:22;;;;;;;6.35;1.95;;;;;;;;;;5024385;28;20389;-63
2022/10/13 05:28:48;;;;;;;5.88;1.80;;;;;;;;;;5028438;28;20032;-63
2022/10/13 05:31:15;;;;;;;5.03;1.60;;;;;;;;;;5031900;28;20026;-63
2022/10/13 05:33:42;;;;;;;7.15;2.13;;;;;;;;;;5035653;28;20025;-63
2022/10/13 05:36:13;;;;;;;3.92;1.50;;;;;;;;;;5034424;28;20112;-63
2022/10/13 05:38:39;;;;;;;5.35;1.33;;;;;;;;;;5043039;28;20078;-63
2022/10/13 05:41:06;;;;;;;7.35;1.83;;;;;;;;;;5029435;28;20041;-63
2022/10/13 05:43:32;;;;;;;6.50;1.90;;;;;;;;;;5024486;28;20038;-65
2022/10/13 05:45:59;;;;;;;8.95;2.05;;;;;;;;;;5035426;28;20021;-64
2022/10/13 05:48:25;;;;;;;7.10;1.45;;;;;;;;;;5035808;28;20034;-64
2022/10/13 05:50:52;;;;;;;2.13;1.00;;;;;;;;;;5033811;28;20017;-64
2022/10/13 05:53:18;;;;;;;3.60;1.05;;;;;;;;;;5029974;28;20041;-64
2022/10/13 05:55:44;;;;;;;4.30;1.10;;;;;;;;;;5029729;28;20484;-64
2022/10/13 05:58:12;;;;;;;2.38;0.98;;;;;;;;;;5026060;28;20025;-64
2022/10/13 06:00:39;;;;;;;2.38;1.00;;;;;;;;;;5017940;28;20034;-64
2022/10/13 06:03:14;;;;;;;1.17;0.80;;;;;;;;;;5026586;28;20083;-64
2022/10/13 06:05:46;;;;;;;1.48;0.68;;;;;;;;;;5023724;28;20029;-64
2022/10/13 06:08:13;;;;;;;3.90;0.80;;;;;;;;;;5026913;28;20018;-64
2022/10/13 06:10:41;;;;;;;4.65;0.77;;;;;;;;;;5031711;28;20118;-64
2022/10/13 06:13:07;;;;;;;0.88;0.55;;;;;;;;;;5024850;28;20029;-64
2022/10/13 06:15:33;;;;;;;1.33;0.50;;;;;;;;;;5031206;28;20545;-64
2022/10/13 06:18:00;;;;;;;1.27;0.60;;;;;;;;;;5029009;28;20132;-64
2022/10/13 06:20:26;;;;;;;1.30;0.60;;;;;;;;;;5031198;28;20400;-64
2022/10/13 06:22:56;;;;;;;0.98;0.60;;;;;;;;;;5028395;28;20037;-64
2022/10/13 06:25:22;;;;;;;3.28;0.65;;;;;;;;;;5036158;28;20497;-64
2022/10/13 06:27:48;;;;;;;1.08;0.55;;;;;;;;;;5024233;28;20489;-64
2022/10/13 06:30:14;;;;;;;1.73;0.60;;;;;;;;;;5032097;28;20045;-64
2022/10/13 06:32:40;;;;;;;1.73;0.40;;;;;;;;;;5033367;28;20112;-64
2022/10/13 06:35:06;;;;;;;2.35;0.60;;;;;;;;;;5033339;28;20401;-64
2022/10/13 06:37:33;;;;;;;1.35;0.50;;;;;;;;;;5033099;28;20025;-64
2022/10/13 06:40:00;;;;;;;3.33;0.60;;;;;;;;;;5033539;28;20025;-64
2022/10/13 06:42:29;;;;;;;0.50;0.50;;;;;;;;;;5033536;28;20140;-64
2022/10/13 06:45:08;;;;;;;3.75;0.77;;;;;;;;;;5030992;28;20053;-64
2022/10/13 06:47:34;;;;;;;1.70;0.70;;;;;;;;;;5033352;28;20087;-64
2022/10/13 06:50:01;;;;;;;4.03;0.60;;;;;;;;;;5032593;28;20034;-64
2022/10/13 06:52:27;;;;;;;2.33;0.60;;;;;;;;;;5043834;28;20152;-65
2022/10/13 06:54:53;;;;;;;3.33;0.63;;;;;;;;;;5028677;28;20029;-63
2022/10/13 06:57:19;;;;;;;1.77;0.60;;;;;;;;;;5029621;28;20038;-63
2022/10/13 06:59:45;;;;;;;2.92;1.02;;;;;;;;;;5026467;28;20109;-63
2022/10/13 07:02:11;;;;;;;0.70;0.70;;;;;;;;;;5024230;28;20053;-63
2022/10/13 07:04:37;;;;;;;3.15;0.90;;;;;;;;;;5021100;28;20034;-63
2022/10/13 07:07:03;;;;;;;3.25;1.00;;;;;;;;;;5025170;28;20029;-63
2022/10/13 07:09:30;;;;;;;3.03;0.85;;;;;;;;;;5029817;28;20037;-63
2022/10/13 07:11:56;;;;;;;1.73;0.90;;;;;;;;;;5035131;28;20017;-64
2022/10/13 07:14:23;;;;;;;1.88;0.80;;;;;;;;;;5032843;28;20409;-64
2022/10/13 07:16:49;;;;;;;1.98;0.80;;;;;;;;;;5038625;28;20028;-64
2022/10/13 07:19:15;;;;;;;1.88;0.90;;;;;;;;;;5038390;28;20378;-64
2022/10/13 07:21:42;;;;;;;1.33;0.73;;;;;;;;;;5034683;28;20424;-64
2022/10/13 07:24:10;;;;;;;1.30;0.80;;;;;;;;;;5035080;28;20421;-64
2022/10/13 07:26:36;;;;;;;1.45;0.70;;;;;;;;;;5029456;28;20033;-64
2022/10/13 07:29:03;;;;;;;1.48;0.85;;;;;;;;;;5032810;28;20017;-64
2022/10/13 07:31:29;;;;;;;2.38;1.00;;;;;;;;;;5032926;28;20101;-64
2022/10/13 07:33:55;;;;;;;1.73;0.93;;;;;;;;;;5040377;28;20034;-64
2022/10/13 07:36:26;;;;;;;3.55;0.80;;;;;;;;;;5030814;28;20124;-64
2022/10/13 07:38:53;;;;;;;2.33;0.60;;;;;;;;;;5037380;28;20032;-64
2022/10/13 07:41:19;;;;;;;0.77;0.60;;;;;;;;;;5039862;28;20025;-64
2022/10/13 07:43:45;;;;;;;1.77;0.70;;;;;;;;;;5034638;28;20116;-64
2022/10/13 07:46:12;;;;;;;2.30;0.60;;;;;;;;;;5034130;28;20068;-64
2022/10/13 07:48:38;;;;;;;1.75;0.60;;;;;;;;;;5033844;28;20029;-64
2022/10/13 07:51:06;;;;;;;1.05;0.70;;;;;;;;;;5036400;28;20689;-64
2022/10/13 07:53:34;;;;;;;2.03;1.10;;;;;;;;;;5032737;28;20031;-64
2022/10/13 07:56:04;;;;;;;1.02;0.80;;;;;;;;;;5036544;28;20025;-64
2022/10/13 07:58:30;;;;;;;1.92;0.90;;;;;;;;;;5034329;28;20182;-64
2022/10/13 08:01:00;;;;;;;3.67;1.42;;;;;;;;;;5033508;28;20044;-64
2022/10/13 08:03:26;;;;;;;4.70;1.30;;;;;;;;;;5042389;28;20179;-64
2022/10/13 08:05:53;;;;;;;2.20;1.33;;;;;;;;;;5034685;28;20025;-64
2022/10/13 08:08:19;;;;;;;2.08;1.17;;;;;;;;;;5032404;28;20026;-64
2022/10/13 08:10:45;;;;;;;1.77;1.02;;;;;;;;;;5028273;28;20069;-64
2022/10/13 08:13:11;;;;;;;2.17;1.20;;;;;;;;;;5030436;28;20033;-65
2022/10/13 08:15:41;;;;;;;4.07;1.02;;;;;;;;;;5030081;28;20032;-65
2022/10/13 08:18:08;;;;;;;5.15;1.17;;;;;;;;;;5029954;28;20416;-65
2022/10/13 08:20:34;;;;;;;3.90;0.90;;;;;;;;;;5030884;28;20029;-65
2022/10/13 08:23:00;;;;;;;1.60;1.30;;;;;;;;;;5029795;28;20121;-65
2022/10/13 08:25:26;;;;;;;2.25;0.90;;;;;;;;;;5028574;28;20029;-65
2022/10/13 08:27:52;;;;;;;2.97;0.93;;;;;;;;;;5033631;28;20022;-65
2022/10/13 08:30:18;;;;;;;4.47;1.02;;;;;;;;;;5033499;28;20053;-65
2022/10/13 08:32:44;;;;;;;2.15;1.00;;;;;;;;;;5024620;28;20378;-65
2022/10/13 08:35:10;;;;;;;1.88;1.02;;;;;;;;;;5033496;28;20112;-65
2022/10/13 08:37:36;;;;;;;2.28;1.00;;;;;;;;;;5034359;28;20463;-65
2022/10/13 08:40:03;;;;;;;1.92;1.00;;;;;;;;;;5036814;28;20026;-64
2022/10/13 08:42:29;;;;;;;4.20;1.00;;;;;;;;;;5033290;28;20044;-64
2022/10/13 08:44:57;;;;;;;9.43;1.30;;;;;;;;;;5029306;28;20037;-64
2022/10/13 08:47:27;;;;;;;1.67;0.77;;;;;;;;;;5030934;28;20026;-64
2022/10/13 08:49:59;;;;;;;2.70;0.90;;;;;;;;;;5030971;28;20090;-64
2022/10/13 08:52:27;;;;;;;1.52;0.68;;;;;;;;;;5029424;28;20038;-64
2022/10/13 08:54:54;;;;;;;3.70;1.00;;;;;;;;;;5032177;28;20158;-64
2022/10/13 08:57:22;;;;;;;1.55;0.80;;;;;;;;;;5031087;28;20030;-63
2022/10/13 08:59:48;;;;;;;2.53;1.23;;;;;;;;;;5031658;28;20041;-63
2022/10/13 09:02:44;;;;;;;2.97;1.20;;;;;;;;;;5033630;28;20029;-64
2022/10/13 09:05:17;;;;;;;2.42;0.73;;;;;;;;;;5032235;28;20049;-64
2022/10/13 09:07:47;;;;;;;1.65;0.80;;;;;;;;;;5034218;28;20037;-64
2022/10/13 09:10:14;;;;;;;3.38;1.33;;;;;;;;;;5040287;28;20056;-64
2022/10/13 09:12:40;;;;;;;1.60;0.90;;;;;;;;;;5027706;28;20033;-64
2022/10/13 09:15:08;;;;;;;3.08;1.10;;;;;;;;;;5029319;28;20029;-64
2022/10/13 09:17:35;;;;;;;2.47;0.95;;;;;;;;;;5031622;28;20025;-64
2022/10/13 09:20:21;;;;;;;3.72;0.55;;;;;;;;;;5031990;28;20030;-64
2022/10/13 09:23:07;;;;;;;2.20;0.60;;;;;;;;;;5035496;28;20047;-64
2022/10/13 09:25:43;;;;;;;4.47;0.60;;;;;;;;;;5033317;28;20456;-64
2022/10/13 09:28:16;;;;;;;1.17;0.60;;;;;;;;;;5035449;28;20036;-64
2022/10/13 09:30:45;;;;;;;0.93;0.60;;;;;;;;;;5029562;28;20022;-64
2022/10/13 09:33:11;;;;;;;0.82;0.60;;;;;;;;;;5028702;28;20170;-64
2022/10/13 09:35:37;;;;;;;3.78;0.90;;;;;;;;;;5034266;28;20029;-64
2022/10/13 09:38:16;;;;;;;2.10;0.60;;;;;;;;;;5028290;28;20044;-64
2022/10/13 09:40:55;;;;;;;1.00;0.70;;;;;;;;;;5028680;28;20115;-64
2022/10/13 09:43:32;;;;;;;0.77;0.70;;;;;;;;;;5025456;28;20029;-64
2022/10/13 09:45:59;;;;;;;2.60;0.70;;;;;;;;;;5033764;28;20018;-64
2022/10/13 09:48:27;;;;;;;2.17;0.68;;;;;;;;;;5028888;28;20038;-64
2022/10/13 09:50:54;;;;;;;1.05;0.70;;;;;;;;;;5035394;28;20508;-64
2022/10/13 09:53:26;;;;;;;2.55;0.50;;;;;;;;;;5029760;28;20032;-64
2022/10/13 09:56:11;;;;;;;1.02;0.57;;;;;;;;;;5024307;28;20021;-64
2022/10/13 09:58:40;;;;;;;1.13;0.63;;;;;;;;;;5023623;28;20030;-64
2022/10/13 10:01:09;;;;;;;0.40;0.40;;;;;;;;;;5030017;28;20029;-64
2022/10/13 10:03:38;;;;;;;0.77;0.40;;;;;;;;;;5032053;28;20045;-64
2022/10/13 10:06:06;;;;;;;0.82;0.50;;;;;;;;;;5027964;28;20035;-64
2022/10/13 10:08:46;;;;;;;1.60;0.60;;;;;;;;;;5034253;28;20033;-64
2022/10/13 10:11:17;;;;;;;1.25;0.40;;;;;;;;;;5032485;28;20072;-64
2022/10/13 10:13:43;;;;;;;0.50;0.40;;;;;;;;;;5033794;28;20033;-64
2022/10/13 10:16:11;;;;;;;0.45;0.30;;;;;;;;;;5028809;28;20034;-64
2022/10/13 10:18:44;;;;;;;0.30;0.30;;;;;;;;;;5025645;28;20022;-64
2022/10/13 10:21:29;;;;;;;0.65;0.30;;;;;;;;;;5024744;28;20030;-65
2022/10/13 10:23:59;;;;;;;0.40;0.40;;;;;;;;;;5026430;28;20124;-64
2022/10/13 10:26:28;;;;;;;2.03;0.40;;;;;;;;;;5034917;28;20025;-64
2022/10/13 10:29:01;;;;;;;0.60;0.43;;;;;;;;;;5031707;28;20029;-64
2022/10/13 10:31:46;;;;;;;0.40;0.40;;;;;;;;;;5031809;28;20017;-64
2022/10/13 10:34:42;;;;;;;0.60;0.40;;;;;;;;;;5033045;28;20056;-64
2022/10/13 10:37:28;;;;;;;0.85;0.40;;;;;;;;;;5040770;28;20053;-64
2022/10/13 10:40:03;;;;;;;1.73;0.32;;;;;;;;;;5042640;28;20071;-64
2022/10/13 10:42:31;;;;;;;3.50;0.50;;;;;;;;;;5027252;28;20393;-64
2022/10/13 10:45:00;;;;;;;0.60;0.40;;;;;;;;;;5034353;28;20112;-64
2022/10/13 10:47:27;;;;;;;1.55;0.50;;;;;;;;;;5041639;28;20021;-64
2022/10/13 10:49:56;;;;;;;0.40;0.40;;;;;;;;;;5034881;28;20424;-64
2022/10/13 10:52:25;;;;;;;0.40;0.40;;;;;;;;;;5035291;28;20599;-64
2022/10/13 10:54:56;;;;;;;0.98;0.40;;;;;;;;;;5034219;28;20101;-64
2022/10/13 10:57:29;;;;;;;0.63;0.40;;;;;;;;;;5030559;28;20547;-64
2022/10/13 11:00:04;;;;;;;2.50;0.50;;;;;;;;;;5020363;28;20029;-64
2022/10/13 11:02:49;;;;;;;0.45;0.30;;;;;;;;;;5029768;28;20401;-64
2022/10/13 11:05:16;;;;;;;0.25;0.25;;;;;;;;;;5034296;28;20017;-64
2022/10/13 11:07:42;;;;;;;1.75;0.40;;;;;;;;;;5037617;28;20044;-64
2022/10/13 11:10:17;;;;;;;1.10;0.20;;;;;;;;;;5032790;28;20037;-64
2022/10/13 11:12:52;;;;;;;0.50;0.30;;;;;;;;;;5032834;28;20021;-64
2022/10/13 11:15:23;;;;;;;1.17;0.43;;;;;;;;;;5032861;28;20078;-64
2022/10/13 11:17:49;;;;;;;3.63;0.43;;;;;;;;;;5032680;28;20025;-64
2022/10/13 11:20:18;;;;;;;0.60;0.50;;;;;;;;;;5034925;28;20036;-64
2022/10/13 11:23:11;;;;;;;1.10;0.30;;;;;;;;;;5037628;28;20037;-64
2022/10/13 11:25:40;;;;;;;0.60;0.30;;;;;;;;;;5024948;28;20075;-64
2022/10/13 11:28:22;;;;;;;0.93;0.50;;;;;;;;;;5027447;28;20049;-64
2022/10/13 11:30:54;;;;;;;1.17;0.32;;;;;;;;;;5025079;28;20042;-64
2022/10/13 11:33:38;;;;;;;2.05;0.38;;;;;;;;;;5020945;28;20033;-64
2022/10/13 11:36:22;;;;;;;0.30;0.30;;;;;;;;;;5022825;28;20041;-64
2022/10/13 11:38:53;;;;;;;2.70;0.68;;;;;;;;;;5022254;28;20525;-64
2022/10/13 11:41:24;;;;;;;3.38;0.40;;;;;;;;;;5018953;28;20038;-64
2022/10/13 11:44:02;;;;;;;1.35;0.40;;;;;;;;;;5016418;28;20046;-64
2022/10/13 11:46:34;;;;;;;2.63;0.40;;;;;;;;;;5020643;28;20044;-64
2022/10/13 11:49:00;;;;;;;1.02;0.50;;;;;;;;;;5023202;28;20044;-64
2022/10/13 11:51:27;;;;;;;2.13;0.50;;;;;;;;;;5020323;28;20033;-64
2022/10/13 11:53:55;;;;;;;0.60;0.30;;;;;;;;;;5018100;28;20502;-64
2022/10/13 11:56:23;;;;;;;1.65;0.40;;;;;;;;;;5019985;28;20076;-64
2022/10/13 11:58:49;;;;;;;1.23;0.32;;;;;;;;;;5029777;28;20028;-64
2022/10/13 12:01:16;;;;;;;1.10;0.47;;;;;;;;;;5020557;28;20371;-64
2022/10/13 12:03:43;;;;;;;0.60;0.30;;;;;;;;;;5021901;28;20041;-64
2022/10/13 12:06:32;;;;;;;1.65;0.30;;;;;;;;;;5026220;28;20504;-64
2022/10/13 12:09:00;;;;;;;1.63;0.22;;;;;;;;;;5027037;28;20028;-64
2022/10/13 12:11:28;;;;;;;0.60;0.40;;;;;;;;;;5024301;28;20468;-64
2022/10/13 12:13:54;;;;;;;0.60;0.45;;;;;;;;;;5029574;28;20038;-64
2022/10/13 12:16:21;;;;;;;0.95;0.50;;;;;;;;;;5024741;28;20026;-64
2022/10/13 12:18:49;;;;;;;0.68;0.30;;;;;;;;;;5020588;28;20061;-64
2022/10/13 12:21:18;;;;;;;0.63;0.28;;;;;;;;;;5026417;28;20087;-64
2022/10/13 12:23:45;;;;;;;0.30;0.30;;;;;;;;;;5028716;28;20077;-64
2022/10/13 12:26:29;;;;;;;1.23;0.35;;;;;;;;;;5021907;28;20025;-64
2022/10/13 12:28:56;;;;;;;1.25;0.40;;;;;;;;;;5027437;28;20025;-64
2022/10/13 12:31:24;;;;;;;1.15;0.52;;;;;;;;;;5023301;28;20489;-64
2022/10/13 12:33:55;;;;;;;9.45;0.73;;;;;;;;;;5027910;28;20034;-64
2022/10/13 12:36:25;;;;;;;2.85;0.52;;;;;;;;;;5017944;28;20094;-64
2022/10/13 12:38:52;;;;;;;0.30;0.30;;;;;;;;;;5020643;28;20029;-64
2022/10/13 12:41:22;;;;;;;0.80;0.30;;;;;;;;;;5027831;28;20029;-64
2022/10/13 12:43:49;;;;;;;0.68;0.40;;;;;;;;;;5024065;28;20034;-64
2022/10/13 12:46:35;;;;;;;2.45;0.80;;;;;;;;;;5026849;28;20478;-64
2022/10/13 12:49:16;;;;;;;3.20;0.50;;;;;;;;;;5023232;28;20053;-64
2022/10/13 12:51:44;;;;;;;0.73;0.60;;;;;;;;;;5022189;28;20075;-64
2022/10/13 12:54:30;;;;;;;0.60;0.60;;;;;;;;;;5022765;28;20105;-64
2022/10/13 12:56:57;;;;;;;1.20;0.82;;;;;;;;;;5023650;28;20029;-64
2022/10/13 12:59:25;;;;;;;1.73;0.93;;;;;;;;;;5023795;28;20040;-64
2022/10/13 13:01:58;;;;;;;2.28;1.40;;;;;;;;;;5021812;28;20045;-64
2022/10/13 13:04:28;;;;;;;1.35;1.05;;;;;;;;;;5026235;28;20036;-64
2022/10/13 13:06:59;;;;;;;2.78;1.20;;;;;;;;;;5030485;28;20516;-64
2022/10/13 13:09:27;;;;;;;1.88;1.10;;;;;;;;;;5033898;28;20045;-64
2022/10/13 13:12:06;;;;;;;5.20;1.20;;;;;;;;;;5026747;28;20408;-64
2022/10/13 13:14:39;;;;;;;1.75;1.35;;;;;;;;;;5022432;28;20026;-64
2022/10/13 13:17:05;;;;;;;4.13;1.40;;;;;;;;;;5023314;28;20033;-64
2022/10/13 13:19:32;;;;;;;1.88;1.40;;;;;;;;;;5021634;28;20050;-64
2022/10/13 13:21:58;;;;;;;3.53;1.35;;;;;;;;;;5023781;28;20045;-64
2022/10/13 13:24:24;;;;;;;1.15;1.05;;;;;;;;;;5017466;28;20378;-64
2022/10/13 13:26:51;;;;;;;1.95;1.27;;;;;;;;;;5026248;28;20033;-64
2022/10/13 13:29:17;;;;;;;1.73;1.50;;;;;;;;;;5028157;28;20026;-64
2022/10/13 13:31:43;;;;;;;2.80;1.30;;;;;;;;;;5022063;28;20050;-64
2022/10/13 13:34:09;;;;;;;4.70;1.80;;;;;;;;;;5024103;28;20459;-64
2022/10/13 13:36:35;;;;;;;2.28;2.00;;;;;;;;;;5025163;28;20036;-64
2022/10/13 13:39:01;;;;;;;2.30;2.10;;;;;;;;;;5021252;28;20029;-64
2022/10/13 13:41:29;;;;;;;2.92;1.83;;;;;;;;;;5023159;28;20111;-64
2022/10/13 13:43:56;;;;;;;3.67;1.52;;;;;;;;;;5024184;28;20367;-64
2022/10/13 13:46:23;;;;;;;4.28;1.95;;;;;;;;;;5025013;28;20025;-64
2022/10/13 13:48:50;;;;;;;6.68;2.42;;;;;;;;;;5021614;28;20022;-64
2022/10/13 13:51:16;;;;;;;5.65;2.22;;;;;;;;;;5027626;28;20030;-64
2022/10/13 13:53:43;;;;;;;4.40;2.50;;;;;;;;;;5029716;28;20049;-64
2022/10/13 13:56:12;;;;;;;4.65;2.60;;;;;;;;;;5027494;28;20036;-64
2022/10/13 13:58:39;;;;;;;5.63;2.60;;;;;;;;;;5023426;28;20033;-64
2022/10/13 14:01:05;;;;;;;6.00;3.00;;;;;;;;;;5024619;28;20025;-64
2022/10/13 14:03:31;;;;;;;4.15;2.58;;;;;;;;;;5026041;28;20033;-64
2022/10/13 14:05:57;;;;;;;5.68;3.15;;;;;;;;;;5030556;28;20519;-64
2022/10/13 14:08:24;;;;;;;8.18;2.90;;;;;;;;;;5031826;28;20044;-64
2022/10/13 14:10:51;;;;;;;6.43;2.70;;;;;;;;;;5028245;28;20133;-64
2022/10/13 14:13:17;;;;;;;7.72;2.80;;;;;;;;;;5027047;28;20108;-64
2022/10/13 14:15:43;;;;;;;3.83;2.22;;;;;;;;;;5027023;28;20510;-64
2022/10/13 14:18:09;;;;;;;5.20;2.53;;;;;;;;;;5025437;28;20029;-64
2022/10/13 14:20:40;;;;;;;4.45;2.47;;;;;;;;;;5025962;28;20568;-64
2022/10/13 14:23:06;;;;;;;4.03;2.13;;;;;;;;;;5028054;28;20038;-64
2022/10/13 14:25:33;;;;;;;6.40;1.98;;;;;;;;;;5031438;28;20017;-64
2022/10/13 14:27:59;;;;;;;5.78;2.25;;;;;;;;;;5035688;28;20492;-64
2022/10/13 14:30:25;;;;;;;4.88;2.42;;;;;;;;;;5033320;28;20069;-64
2022/10/13 14:32:51;;;;;;;5.47;2.80;;;;;;;;;;5032063;28;20030;-64
2022/10/13 14:35:17;;;;;;;4.28;1.63;;;;;;;;;;5033228;28;20032;-64
2022/10/13 14:37:43;;;;;;;5.15;2.60;;;;;;;;;;5028221;28;20018;-64
2022/10/13 14:40:09;;;;;;;6.68;2.28;;;;;;;;;;5024952;28;20033;-64
2022/10/13 14:42:37;;;;;;;6.45;2.45;;;;;;;;;;5025842;28;20057;-64
2022/10/13 14:45:05;;;;;;;4.03;2.00;;;;;;;;;;5028141;28;20026;-64
2022/10/13 14:47:31;;;;;;;5.95;2.38;;;;;;;;;;5022591;28;20030;-64
2022/10/13 14:49:57;;;;;;;4.25;1.92;;;;;;;;;;5028220;28;20155;-64